createdAt,value
2019-02-22T00:00:38.238Z,5.44
2019-02-22T00:03:04.862Z,5.50
2019-02-22T00:05:31.411Z,5.45
2019-02-22T00:07:57.916Z,5.28
2019-02-22T00:10:24.338Z,5.15
2019-02-22T00:12:50.771Z,5.20
2019-02-22T00:15:17.326Z,5.24
2019-02-22T00:17:43.750Z,5.44
2019-02-22T00:20:10.186Z,5.32
2019-02-22T00:22:36.613Z,5.42
2019-02-22T00:25:04.268Z,4.97
2019-02-22T00:27:30.794Z,4.92
2019-02-22T00:29:57.251Z,4.77
2019-02-22T00:32:23.678Z,4.81
2019-02-22T00:34:50.200Z,4.81
2019-02-22T00:37:16.661Z,4.75
2019-02-22T00:39:43.069Z,4.68
2019-02-22T00:42:09.493Z,4.77
2019-02-22T00:44:35.966Z,4.89
2019-02-22T00:47:02.391Z,4.86
2019-02-22T00:49:28.818Z,4.83
2019-02-22T00:51:55.284Z,4.79
2019-02-22T00:54:21.697Z,4.80
2019-02-22T00:56:48.113Z,4.92
2019-02-22T00:59:14.695Z,4.75
2019-02-22T01:01:41.116Z,4.70
2019-02-22T01:04:07.685Z,4.56
2019-02-22T01:06:34.579Z,4.46
2019-02-22T01:09:01.459Z,4.48
2019-02-22T01:11:28.039Z,4.48
2019-02-22T01:13:54.769Z,4.43
2019-02-22T01:16:21.239Z,4.42
2019-02-22T01:18:47.661Z,4.47
2019-02-22T01:21:14.083Z,4.47
2019-02-22T01:23:40.511Z,4.48
2019-02-22T01:26:06.983Z,4.41
2019-02-22T01:28:33.424Z,4.52
2019-02-22T01:30:59.883Z,4.48
2019-02-22T01:33:26.310Z,4.39
2019-02-22T01:35:52.811Z,4.63
2019-02-22T01:38:19.350Z,4.57
2019-02-22T01:40:45.770Z,4.52
2019-02-22T01:43:12.186Z,4.49
2019-02-22T01:45:38.646Z,4.54
2019-02-22T01:48:05.062Z,4.67
2019-02-22T01:50:31.485Z,4.66
2019-02-22T01:52:57.990Z,4.60
2019-02-22T01:55:24.493Z,4.58
2019-02-22T01:57:50.917Z,4.55
2019-02-22T02:00:17.434Z,4.50
2019-02-22T02:02:44.015Z,4.50
2019-02-22T02:05:10.527Z,4.24
2019-02-22T02:07:37.051Z,4.32
2019-02-22T02:10:05.013Z,4.46
2019-02-22T02:12:31.442Z,4.36
2019-02-22T02:14:57.904Z,4.16
2019-02-22T02:17:24.323Z,4.14
2019-02-22T02:19:50.748Z,4.12
2019-02-22T02:22:17.170Z,4.06
2019-02-22T02:24:43.631Z,4.34
2019-02-22T02:27:10.048Z,4.14
2019-02-22T02:29:36.467Z,4.19
2019-02-22T02:32:03.001Z,4.23
2019-02-22T02:34:29.496Z,4.08
2019-02-22T02:36:55.906Z,4.05
2019-02-22T02:39:22.380Z,4.14
2019-02-22T02:41:48.855Z,4.15
2019-02-22T02:44:15.284Z,4.06
2019-02-22T02:46:41.741Z,4.16
2019-02-22T02:49:08.160Z,3.99
2019-02-22T02:51:34.803Z,4.03
2019-02-22T02:54:01.308Z,4.03
2019-02-22T02:56:27.777Z,4.15
2019-02-22T02:58:54.203Z,4.00
2019-02-22T03:01:20.618Z,4.06
2019-02-22T03:03:47.040Z,4.04
2019-02-22T03:06:24.563Z,4.12
2019-02-22T03:08:50.985Z,4.15
2019-02-22T03:11:21.144Z,4.13
2019-02-22T03:13:45.851Z,4.07
2019-02-22T03:16:12.358Z,4.02
2019-02-22T03:18:38.790Z,4.03
2019-02-22T03:21:05.208Z,4.05
2019-02-22T03:23:31.638Z,4.25
2019-02-22T03:25:58.092Z,3.96
2019-02-22T03:28:24.525Z,3.90
2019-02-22T03:30:50.965Z,3.94
2019-02-22T03:33:17.407Z,3.89
2019-02-22T03:35:44.387Z,3.73
2019-02-22T03:38:10.819Z,3.67
2019-02-22T03:40:37.349Z,3.64
2019-02-22T03:43:03.766Z,3.75
2019-02-22T03:45:30.276Z,3.70
2019-02-22T03:47:56.703Z,3.76
2019-02-22T03:50:23.115Z,3.51
2019-02-22T03:52:54.107Z,3.47
2019-02-22T03:55:20.591Z,3.12
2019-02-22T03:57:47.117Z,3.31
2019-02-22T04:00:13.552Z,3.49
2019-02-22T04:02:39.980Z,3.71
2019-02-22T04:05:07.063Z,3.71
2019-02-22T04:07:33.658Z,3.57
2019-02-22T04:10:00.296Z,3.61
2019-02-22T04:12:26.703Z,3.56
2019-02-22T04:14:53.318Z,3.49
2019-02-22T04:17:19.747Z,3.55
2019-02-22T04:19:46.179Z,3.51
2019-02-22T04:22:12.603Z,3.48
2019-02-22T04:24:39.050Z,3.55
2019-02-22T04:27:05.481Z,3.56
2019-02-22T04:29:31.912Z,3.55
2019-02-22T04:31:58.346Z,3.27
2019-02-22T04:34:24.782Z,3.52
2019-02-22T04:36:51.215Z,3.70
2019-02-22T04:39:17.723Z,3.35
2019-02-22T04:41:44.252Z,3.45
2019-02-22T04:44:10.749Z,3.51
2019-02-22T04:46:37.259Z,3.47
2019-02-22T04:49:03.688Z,3.63
2019-02-22T04:51:30.126Z,3.49
2019-02-22T04:53:56.537Z,3.68
2019-02-22T04:56:23.072Z,3.67
2019-02-22T04:58:49.505Z,3.22
2019-02-22T05:01:15.940Z,3.30
2019-02-22T05:03:42.368Z,2.94
2019-02-22T05:06:08.939Z,2.93
2019-02-22T05:08:35.364Z,3.02
2019-02-22T05:11:01.819Z,3.03
2019-02-22T05:13:28.249Z,3.18
2019-02-22T05:15:54.773Z,3.18
2019-02-22T05:18:21.199Z,3.36
2019-02-22T05:20:47.631Z,3.43
2019-02-22T05:23:14.750Z,3.31
2019-02-22T05:25:41.328Z,3.53
2019-02-22T05:28:07.760Z,3.54
2019-02-22T05:30:36.453Z,3.38
2019-02-22T05:33:02.618Z,3.45
2019-02-22T05:35:29.106Z,3.44
2019-02-22T05:37:55.542Z,3.37
2019-02-22T05:40:22.044Z,2.94
2019-02-22T05:42:48.556Z,3.19
2019-02-22T05:45:15.125Z,3.13
2019-02-22T05:47:41.550Z,3.15
2019-02-22T05:50:07.979Z,3.33
2019-02-22T05:52:34.397Z,3.27
2019-02-22T05:55:00.882Z,3.38
2019-02-22T05:57:27.343Z,3.14
2019-02-22T05:59:53.774Z,3.29
2019-02-22T06:02:20.219Z,3.06
2019-02-22T06:04:46.721Z,3.10
2019-02-22T06:07:14.526Z,2.93
2019-02-22T06:09:42.515Z,2.73
2019-02-22T06:12:09.054Z,2.95
2019-02-22T06:14:35.535Z,3.34
2019-02-22T06:17:02.003Z,3.20
2019-02-22T06:19:29.825Z,2.99
2019-02-22T06:21:56.259Z,3.59
2019-02-22T06:24:22.690Z,3.25
2019-02-22T06:26:49.120Z,3.36
2019-02-22T06:29:15.642Z,3.29
2019-02-22T06:31:42.079Z,3.37
2019-02-22T06:34:08.503Z,3.06
2019-02-22T06:36:34.959Z,3.01
2019-02-22T06:39:01.388Z,2.97
2019-02-22T06:41:27.917Z,2.87
2019-02-22T06:43:54.459Z,2.76
2019-02-22T06:46:20.895Z,2.52
2019-02-22T06:48:47.327Z,2.64
2019-02-22T06:51:13.755Z,3.02
2019-02-22T06:53:40.184Z,2.94
2019-02-22T06:56:06.642Z,2.81
2019-02-22T06:58:33.153Z,2.83
2019-02-22T07:00:59.586Z,2.86
2019-02-22T07:03:26.020Z,2.94
2019-02-22T07:05:52.475Z,3.00
2019-02-22T07:08:18.909Z,3.06
2019-02-22T07:11:03.590Z,2.97
2019-02-22T07:13:30.023Z,3.00
2019-02-22T07:15:56.994Z,3.09
2019-02-22T07:18:23.425Z,2.95
2019-02-22T07:20:49.846Z,2.92
2019-02-22T07:23:16.274Z,3.01
2019-02-22T07:25:42.786Z,3.37
2019-02-22T07:28:09.222Z,3.24
2019-02-22T07:30:35.664Z,3.53
2019-02-22T07:33:02.219Z,3.38
2019-02-22T07:35:28.730Z,3.33
2019-02-22T07:37:55.155Z,3.40
2019-02-22T07:40:21.689Z,3.52
2019-02-22T07:42:48.246Z,3.77
2019-02-22T07:45:14.771Z,3.71
2019-02-22T07:47:41.240Z,3.71
2019-02-22T07:50:09.076Z,3.87
2019-02-22T07:52:35.531Z,3.83
2019-02-22T07:55:02.036Z,3.60
2019-02-22T07:57:28.570Z,3.74
2019-02-22T07:59:55.027Z,3.55
2019-02-22T08:02:21.457Z,3.41
2019-02-22T08:04:47.965Z,3.55
2019-02-22T08:07:14.396Z,3.73
2019-02-22T08:09:40.827Z,3.67
2019-02-22T08:12:07.259Z,3.86
2019-02-22T08:14:33.712Z,3.85
2019-02-22T08:17:00.501Z,4.02
2019-02-22T08:19:26.979Z,4.16
2019-02-22T08:21:53.405Z,4.25
2019-02-22T08:24:19.833Z,4.24
2019-02-22T08:26:46.268Z,4.18
2019-02-22T08:29:12.715Z,4.08
2019-02-22T08:31:39.177Z,4.07
2019-02-22T08:34:05.590Z,4.31
2019-02-22T08:36:32.193Z,4.33
2019-02-22T08:38:58.661Z,4.23
2019-02-22T08:41:25.144Z,4.46
2019-02-22T08:43:51.678Z,4.33
2019-02-22T08:46:18.195Z,4.37
2019-02-22T08:48:44.692Z,4.56
2019-02-22T08:51:11.223Z,4.51
2019-02-22T08:53:37.655Z,4.67
2019-02-22T08:56:04.103Z,4.72
2019-02-22T08:58:30.550Z,4.77
2019-02-22T09:00:57.098Z,4.77
2019-02-22T09:03:23.560Z,4.81
2019-02-22T09:05:50.054Z,4.87
2019-02-22T09:08:16.471Z,4.98
2019-02-22T09:10:42.999Z,5.04
2019-02-22T09:13:09.470Z,5.19
2019-02-22T09:15:36.075Z,5.40
2019-02-22T09:18:02.505Z,5.40
2019-02-22T09:20:29.385Z,5.55
2019-02-22T09:22:55.827Z,5.68
2019-02-22T09:25:22.326Z,5.76
2019-02-22T09:27:48.778Z,6.02
2019-02-22T09:30:15.405Z,6.09
2019-02-22T09:32:41.848Z,6.15
2019-02-22T09:35:09.876Z,6.29
2019-02-22T09:37:36.459Z,6.35
2019-02-22T09:40:05.483Z,6.66
2019-02-22T09:42:32.008Z,6.84
2019-02-22T09:44:58.742Z,6.94
2019-02-22T09:47:25.172Z,7.09
2019-02-22T09:49:51.601Z,7.13
2019-02-22T09:52:18.084Z,7.39
2019-02-22T09:54:44.556Z,7.45
2019-02-22T09:57:11.008Z,7.74
2019-02-22T09:59:37.493Z,7.91
2019-02-22T10:02:03.951Z,8.10
2019-02-22T10:04:30.379Z,8.55
2019-02-22T10:06:56.800Z,8.68
2019-02-22T10:09:23.227Z,8.71
2019-02-22T10:11:49.646Z,8.94
2019-02-22T10:14:16.064Z,9.11
2019-02-22T10:16:42.672Z,9.08
2019-02-22T10:19:09.102Z,9.66
2019-02-22T10:21:35.529Z,9.66
2019-02-22T10:24:01.986Z,9.38
2019-02-22T10:26:28.585Z,10.13
2019-02-22T10:28:54.998Z,10.41
2019-02-22T10:31:21.445Z,10.35
2019-02-22T10:33:47.857Z,10.52
2019-02-22T10:36:14.337Z,10.94
2019-02-22T10:38:40.765Z,10.91
2019-02-22T10:41:07.207Z,11.16
2019-02-22T10:43:33.737Z,10.87
2019-02-22T10:46:00.289Z,11.64
2019-02-22T10:48:26.731Z,11.90
2019-02-22T10:50:53.157Z,11.72
2019-02-22T10:53:19.659Z,11.82
2019-02-22T10:55:46.109Z,11.68
2019-02-22T10:58:12.535Z,11.65
2019-02-22T11:00:38.961Z,11.84
2019-02-22T11:03:05.430Z,11.75
2019-02-22T11:05:31.940Z,11.87
2019-02-22T11:07:58.357Z,12.06
2019-02-22T11:10:24.792Z,11.94
2019-02-22T11:12:51.215Z,11.94
2019-02-22T11:15:17.674Z,12.04
2019-02-22T11:17:46.392Z,12.18
2019-02-22T11:20:12.918Z,12.16
2019-02-22T11:22:39.345Z,12.20
2019-02-22T11:25:12.961Z,12.28
2019-02-22T11:27:39.376Z,12.14
2019-02-22T11:30:09.406Z,12.30
2019-02-22T11:32:35.817Z,12.47
2019-02-22T11:35:02.779Z,12.44
2019-02-22T11:37:32.369Z,12.37
2019-02-22T11:39:58.793Z,12.53
2019-02-22T11:42:25.372Z,12.49
2019-02-22T11:44:51.891Z,12.60
2019-02-22T11:47:18.312Z,12.66
2019-02-22T11:49:44.730Z,12.75
2019-02-22T11:52:11.170Z,12.61
2019-02-22T11:54:37.608Z,12.72
2019-02-22T11:57:04.636Z,12.75
2019-02-22T11:59:31.067Z,12.82
2019-02-22T12:01:57.507Z,13.16
2019-02-22T12:04:24.141Z,12.82
2019-02-22T12:06:50.675Z,12.77
2019-02-22T12:09:17.114Z,13.14
2019-02-22T12:11:43.544Z,13.05
2019-02-22T12:14:09.977Z,13.29
2019-02-22T12:16:36.430Z,13.21
2019-02-22T12:19:03.158Z,13.42
2019-02-22T12:21:29.597Z,13.55
2019-02-22T12:23:56.021Z,13.57
2019-02-22T12:26:22.476Z,13.60
2019-02-22T12:28:48.979Z,13.58
2019-02-22T12:31:15.404Z,13.61
2019-02-22T12:33:41.933Z,13.61
2019-02-22T12:36:09.580Z,13.53
2019-02-22T12:38:36.361Z,13.69
2019-02-22T12:41:02.779Z,13.93
2019-02-22T12:43:29.296Z,13.88
2019-02-22T12:45:55.910Z,13.73
2019-02-22T12:48:22.390Z,13.75
2019-02-22T12:50:48.827Z,13.65
2019-02-22T12:53:15.236Z,13.85
2019-02-22T12:55:41.729Z,13.78
2019-02-22T12:58:08.156Z,13.81
2019-02-22T13:00:34.675Z,13.66
2019-02-22T13:03:02.351Z,13.79
2019-02-22T13:05:29.796Z,13.76
2019-02-22T13:07:56.214Z,13.91
2019-02-22T13:10:22.734Z,14.00
2019-02-22T13:12:49.146Z,13.84
2019-02-22T13:15:15.653Z,13.80
2019-02-22T13:17:42.181Z,14.00
2019-02-22T13:20:08.926Z,13.93
2019-02-22T13:22:35.363Z,13.98
2019-02-22T13:25:01.978Z,14.02
2019-02-22T13:27:28.416Z,13.71
2019-02-22T13:29:54.845Z,13.79
2019-02-22T13:32:21.383Z,13.99
2019-02-22T13:34:48.099Z,14.07
2019-02-22T13:37:14.556Z,13.90
2019-02-22T13:39:40.992Z,14.04
2019-02-22T13:42:07.418Z,14.58
2019-02-22T13:44:34.680Z,14.79
2019-02-22T13:47:01.204Z,14.18
2019-02-22T13:49:27.625Z,14.68
2019-02-22T13:51:54.042Z,14.24
2019-02-22T13:54:20.516Z,14.36
2019-02-22T13:56:47.027Z,14.82
2019-02-22T13:59:13.453Z,14.79
2019-02-22T14:01:40.031Z,14.98
2019-02-22T14:04:06.461Z,14.72
2019-02-22T14:06:32.997Z,14.61
2019-02-22T14:08:59.421Z,14.99
2019-02-22T14:11:27.288Z,14.88
2019-02-22T14:13:53.979Z,14.92
2019-02-22T14:16:20.487Z,14.80
2019-02-22T14:18:47.072Z,15.30
2019-02-22T14:21:13.529Z,15.45
2019-02-22T14:23:49.037Z,15.51
2019-02-22T14:26:16.521Z,15.27
2019-02-22T14:28:44.709Z,15.06
2019-02-22T14:31:16.940Z,15.35
2019-02-22T14:33:48.969Z,15.52
2019-02-22T14:36:21.073Z,15.54
2019-02-22T14:41:46.050Z,15.38
2019-02-22T14:47:08.284Z,15.52
2019-02-22T14:49:39.143Z,15.58
2019-02-22T14:52:12.665Z,15.46
2019-02-22T14:54:43.657Z,15.40
2019-02-22T14:57:16.545Z,15.73
2019-02-22T14:59:45.876Z,15.80
2019-02-22T15:02:16.180Z,15.18
2019-02-22T15:04:43.376Z,15.20
2019-02-22T15:07:16.677Z,15.21
2019-02-22T15:09:45.895Z,14.93
2019-02-22T15:12:17.996Z,15.18
2019-02-22T15:14:46.629Z,15.12
2019-02-22T15:17:23.196Z,15.23
2019-02-22T15:19:51.501Z,15.60
2019-02-22T15:22:20.226Z,15.16
2019-02-22T15:24:48.625Z,15.37
2019-02-22T15:27:16.893Z,15.00
2019-02-22T15:29:56.913Z,15.22
2019-02-22T15:32:27.118Z,15.58
2019-02-22T15:34:57.933Z,15.71
2019-02-22T15:37:34.747Z,15.60
2019-02-22T15:40:06.263Z,15.34
2019-02-22T15:42:35.925Z,15.39
2019-02-22T15:45:07.461Z,15.52
2019-02-22T15:47:41.262Z,15.36
2019-02-22T15:50:16.045Z,15.58
2019-02-22T15:52:42.961Z,15.44
2019-02-22T15:55:10.725Z,14.96
2019-02-22T15:57:37.159Z,14.86
2019-02-22T16:00:10.206Z,15.60
2019-02-22T16:02:36.684Z,14.90
2019-02-22T16:05:06.118Z,14.99
2019-02-22T16:07:43.954Z,14.85
2019-02-22T16:10:01.148Z,15.43
2019-02-22T16:12:27.569Z,15.03
2019-02-22T16:14:54.177Z,15.95
2019-02-22T16:17:20.817Z,16.00
2019-02-22T16:19:47.249Z,15.67
2019-02-22T16:22:13.672Z,16.04
2019-02-22T16:24:40.136Z,15.32
2019-02-22T16:27:06.554Z,14.86
2019-02-22T16:29:33.041Z,14.57
2019-02-22T16:31:59.716Z,14.20
2019-02-22T16:34:26.181Z,14.11
2019-02-22T16:36:52.973Z,14.24
2019-02-22T16:39:19.393Z,13.72
2019-02-22T16:41:45.819Z,13.77
2019-02-22T16:44:12.329Z,13.77
2019-02-22T16:46:38.888Z,13.68
2019-02-22T16:49:05.297Z,13.54
2019-02-22T16:51:31.721Z,13.32
2019-02-22T16:53:58.150Z,13.45
2019-02-22T16:56:24.597Z,13.36
2019-02-22T16:58:51.044Z,13.33
2019-02-22T17:01:17.471Z,13.34
2019-02-22T17:03:43.923Z,13.23
2019-02-22T17:06:10.458Z,13.00
2019-02-22T17:08:37.006Z,12.90
2019-02-22T17:11:03.431Z,12.82
2019-02-22T17:13:29.863Z,12.66
2019-02-22T17:15:56.373Z,12.56
2019-02-22T17:18:22.812Z,12.53
2019-02-22T17:20:49.236Z,12.51
2019-02-22T17:23:15.663Z,12.51
2019-02-22T17:25:42.113Z,12.44
2019-02-22T17:28:08.537Z,12.41
2019-02-22T17:30:34.960Z,12.28
2019-02-22T17:33:01.383Z,12.18
2019-02-22T17:35:27.866Z,12.20
2019-02-22T17:37:54.360Z,12.25
2019-02-22T17:40:23.191Z,12.24
2019-02-22T17:42:49.626Z,12.13
2019-02-22T17:45:16.162Z,12.04
2019-02-22T17:47:42.678Z,12.06
2019-02-22T17:50:09.394Z,12.06
2019-02-22T17:52:35.839Z,11.88
2019-02-22T17:55:02.281Z,11.81
2019-02-22T17:57:28.698Z,11.81
2019-02-22T17:59:55.127Z,11.86
2019-02-22T18:02:21.557Z,11.75
2019-02-22T18:04:48.289Z,11.79
2019-02-22T18:07:14.842Z,11.70
2019-02-22T18:09:41.427Z,11.63
2019-02-22T18:12:07.880Z,11.58
2019-02-22T18:14:34.364Z,11.59
2019-02-22T18:17:08.003Z,11.43
2019-02-22T18:19:29.106Z,11.49
2019-02-22T18:21:55.551Z,11.47
2019-02-22T18:24:21.983Z,11.38
2019-02-22T18:26:48.407Z,11.28
2019-02-22T18:29:14.867Z,11.41
2019-02-22T18:31:42.395Z,11.14
2019-02-22T18:34:08.931Z,11.27
2019-02-22T18:36:36.470Z,11.06
2019-02-22T18:39:04.595Z,11.09
2019-02-22T18:41:31.164Z,10.90
2019-02-22T18:43:57.593Z,10.88
2019-02-22T18:46:24.124Z,10.85
2019-02-22T18:48:50.688Z,10.85
2019-02-22T18:51:17.224Z,10.67
2019-02-22T18:53:43.670Z,10.77
2019-02-22T18:56:10.188Z,10.68
2019-02-22T18:58:36.627Z,10.50
2019-02-22T19:01:03.067Z,10.42
2019-02-22T19:03:29.650Z,10.38
2019-02-22T19:05:56.137Z,10.34
2019-02-22T19:08:32.137Z,10.38
2019-02-22T19:10:50.979Z,10.29
2019-02-22T19:13:17.833Z,10.13
2019-02-22T19:15:44.320Z,10.18
2019-02-22T19:18:10.750Z,10.13
2019-02-22T19:20:37.182Z,10.05
2019-02-22T19:23:03.613Z,9.93
2019-02-22T19:25:30.154Z,9.85
2019-02-22T19:27:56.588Z,9.83
2019-02-22T19:30:23.563Z,9.83
2019-02-22T19:32:50.085Z,9.76
2019-02-22T19:35:16.629Z,9.76
2019-02-22T19:37:43.139Z,9.74
2019-02-22T19:40:15.117Z,9.80
2019-02-22T19:42:41.540Z,9.70
2019-02-22T19:45:09.842Z,9.69
2019-02-22T19:47:41.888Z,9.58
2019-02-22T19:50:08.060Z,9.42
2019-02-22T19:52:34.474Z,9.42
2019-02-22T19:55:00.996Z,9.37
2019-02-22T19:57:28.756Z,9.37
2019-02-22T19:59:55.179Z,9.37
2019-02-22T20:02:21.615Z,9.34
2019-02-22T20:04:48.146Z,9.25
2019-02-22T20:07:14.563Z,9.26
2019-02-22T20:09:41.005Z,9.24
2019-02-22T20:12:07.512Z,9.12
2019-02-22T20:14:33.990Z,9.05
2019-02-22T20:17:00.457Z,9.04
2019-02-22T20:19:27.960Z,9.21
2019-02-22T20:21:54.417Z,9.11
2019-02-22T20:24:20.907Z,9.04
2019-02-22T20:26:48.421Z,9.09
2019-02-22T20:29:14.938Z,9.06
2019-02-22T20:31:41.726Z,9.08
2019-02-22T20:34:08.237Z,8.96
2019-02-22T20:36:34.752Z,8.94
2019-02-22T20:39:01.301Z,9.03
2019-02-22T20:41:27.726Z,9.03
2019-02-22T20:43:54.149Z,8.94
2019-02-22T20:46:21.354Z,8.92
2019-02-22T20:48:48.064Z,8.97
2019-02-22T20:51:14.604Z,8.94
2019-02-22T20:53:41.154Z,8.97
2019-02-22T20:56:07.662Z,8.73
2019-02-22T20:58:34.091Z,8.76
2019-02-22T21:01:00.556Z,8.84
2019-02-22T21:03:26.994Z,8.67
2019-02-22T21:05:53.491Z,8.82
2019-02-22T21:08:20.040Z,8.69
2019-02-22T21:10:46.466Z,8.78
2019-02-22T21:13:13.036Z,8.70
2019-02-22T21:15:39.539Z,8.64
2019-02-22T21:18:15.935Z,8.45
2019-02-22T21:20:34.369Z,8.67
2019-02-22T21:23:00.947Z,8.59
2019-02-22T21:25:27.764Z,8.49
2019-02-22T21:27:55.897Z,8.39
2019-02-22T21:30:22.324Z,8.33
2019-02-22T21:32:48.827Z,8.32
2019-02-22T21:35:15.872Z,8.02
2019-02-22T21:37:43.012Z,8.10
2019-02-22T21:40:12.697Z,8.15
2019-02-22T21:42:39.303Z,8.07
2019-02-22T21:45:15.282Z,8.02
2019-02-22T21:47:53.708Z,8.06
2019-02-22T21:50:11.713Z,8.15
2019-02-22T21:52:38.134Z,8.05
2019-02-22T21:55:07.099Z,8.05
2019-02-22T21:57:33.521Z,8.06
2019-02-22T21:59:59.944Z,8.00
2019-02-22T22:02:26.434Z,8.03
2019-02-22T22:04:52.982Z,7.93
2019-02-22T22:07:19.432Z,7.91
2019-02-22T22:09:45.850Z,7.84
2019-02-22T22:12:12.271Z,8.05
2019-02-22T22:14:38.800Z,8.16
2019-02-22T22:17:05.231Z,8.26
2019-02-22T22:19:31.730Z,8.04
2019-02-22T22:21:58.154Z,8.11
2019-02-22T22:24:24.661Z,8.22
2019-02-22T22:26:51.088Z,8.06
2019-02-22T22:29:17.513Z,8.03
2019-02-22T22:31:43.948Z,8.06
2019-02-22T22:34:10.465Z,7.92
2019-02-22T22:36:37.045Z,8.01
2019-02-22T22:39:04.371Z,7.93
2019-02-22T22:41:30.816Z,7.97
2019-02-22T22:43:57.240Z,7.94
2019-02-22T22:46:23.690Z,7.67
2019-02-22T22:48:50.918Z,7.84
2019-02-22T22:51:17.514Z,7.74
2019-02-22T22:53:43.961Z,7.77
2019-02-22T22:56:10.447Z,7.60
2019-02-22T22:58:36.880Z,7.52
2019-02-22T23:01:07.780Z,7.62
2019-02-22T23:03:34.601Z,7.41
2019-02-22T23:06:01.092Z,7.52
2019-02-22T23:08:28.125Z,7.55
2019-02-22T23:10:54.648Z,7.58
2019-02-22T23:13:21.162Z,7.44
2019-02-22T23:15:47.725Z,7.27
2019-02-22T23:18:14.147Z,7.19
2019-02-22T23:20:40.666Z,7.22
2019-02-22T23:23:07.347Z,7.29
2019-02-22T23:25:33.786Z,7.12
2019-02-22T23:28:00.209Z,7.00
2019-02-22T23:30:26.625Z,6.83
2019-02-22T23:32:53.152Z,6.59
2019-02-22T23:35:19.744Z,6.91
2019-02-22T23:37:46.166Z,6.69
2019-02-22T23:40:12.785Z,6.53
2019-02-22T23:42:39.225Z,6.76
2019-02-22T23:45:06.468Z,6.87
2019-02-22T23:47:32.940Z,6.88
2019-02-22T23:49:59.422Z,6.68
2019-02-22T23:52:25.843Z,6.74
2019-02-22T23:54:52.367Z,6.82
2019-02-22T23:57:18.788Z,6.85
2019-02-22T23:59:45.205Z,6.76
